Nanao, Japan
Current Conditions -  °F | °C
As of 7:14 AM on Monday 22 Dec 2014 (Local Time) from RJNT Reporting Station
Snow Showers Snow Showers  
Wind Chill: 29°   Ceiling: 200
Heat Index: 34°   Visibility: 0.25mi
Dew Point: 30°   Wind: 6mph
Humidity: 87%   Direction: 210°SSW
Pressure: 29.91"   Gusts: NA
Location:  37.05°N, 136.96°E
Report Text: RJNT 212214Z 21005KT 110V230 0400 SHSN VV002 01/M01 Q1013 RMK A2993
Loading
Personal Weather Stations






























Interactive Weather Map New forecast layout! Learn more

10-Day Weather Forecast

Advertisements
Track Severe Weather on mobile